Time;durP1;ratioP1;P1;durP2;ratioP2;P2;SDS_P1;SDS_P2;PMS_P1;PMS_P2;Temp;Humidity;BMP_temperature;BMP_pressure;BME280_temperature;BME280_humidity;BME280_pressure;Samples;Min_cycle;Max_cycle;Signal;HPM_P1;HPM_P2
2023/05/20 00:02:15;;;;;;;13.95;5.35;;;12.80;99.90;;;;;;4917758;28;20035;-78
2023/05/20 00:04:44;;;;;;;12.27;5.22;;;12.70;99.90;;;;;;4950797;28;20058;-79
2023/05/20 00:07:12;;;;;;;6.93;4.93;;;12.80;99.90;;;;;;4952768;28;20183;-79
2023/05/20 00:09:39;;;;;;;9.32;4.80;;;12.80;99.90;;;;;;4951891;28;20107;-76
2023/05/20 00:12:05;;;;;;;9.05;4.88;;;12.70;99.90;;;;;;4953185;28;20414;-76
2023/05/20 00:14:31;;;;;;;10.73;5.32;;;12.60;99.90;;;;;;4964164;28;20129;-77
2023/05/20 00:16:56;;;;;;;9.63;5.70;;;12.60;99.90;;;;;;4941558;28;20059;-75
2023/05/20 00:19:22;;;;;;;9.48;5.60;;;12.40;99.90;;;;;;4951144;28;20051;-75
2023/05/20 00:21:48;;;;;;;9.85;5.18;;;12.40;99.90;;;;;;5066707;28;20160;-76
2023/05/20 00:24:13;;;;;;;11.45;4.93;;;12.30;99.90;;;;;;5069532;28;20435;-78
2023/05/20 00:26:39;;;;;;;8.68;4.47;;;12.20;99.90;;;;;;4952498;28;20049;-76
2023/05/20 00:29:04;;;;;;;8.38;4.72;;;12.20;99.90;;;;;;4969165;28;20092;-76
2023/05/20 00:31:30;;;;;;;8.20;5.35;;;12.10;99.90;;;;;;4968831;28;20042;-78
2023/05/20 00:33:56;;;;;;;10.02;4.78;;;12.20;99.90;;;;;;4921121;28;20529;-77
2023/05/20 00:36:21;;;;;;;9.43;5.28;;;12.20;99.90;;;;;;4917458;28;20042;-78
2023/05/20 00:38:47;;;;;;;9.15;5.10;;;12.30;99.90;;;;;;4967349;28;20047;-81
2023/05/20 00:41:13;;;;;;;6.50;4.65;;;12.30;99.90;;;;;;4953344;28;20050;-77
2023/05/20 00:43:38;;;;;;;8.13;5.00;;;12.50;99.90;;;;;;4936769;28;20049;-79
2023/05/20 00:46:04;;;;;;;9.93;5.60;;;12.70;99.90;;;;;;4952679;28;20082;-76
2023/05/20 00:48:42;;;;;;;8.13;5.28;;;12.60;99.90;;;;;;5036599;28;20059;-79
2023/05/20 00:51:09;;;;;;;7.85;4.47;;;12.50;99.90;;;;;;4968977;28;20039;-76
2023/05/20 00:53:35;;;;;;;12.75;5.43;;;12.60;99.90;;;;;;4969144;28;20035;-79
2023/05/20 00:56:03;;;;;;;13.85;5.40;;;12.60;99.90;;;;;;4968711;28;20039;-81
2023/05/20 00:58:28;;;;;;;7.90;4.80;;;12.60;99.90;;;;;;4969519;28;20039;-78
2023/05/20 01:00:54;;;;;;;10.73;5.32;;;12.60;99.90;;;;;;4991167;28;20482;-78
2023/05/20 01:03:21;;;;;;;7.55;5.13;;;12.50;99.90;;;;;;4974897;28;20064;-78
2023/05/20 01:05:48;;;;;;;8.40;5.00;;;12.60;99.90;;;;;;4989878;28;20048;-81
2023/05/20 01:08:14;;;;;;;10.02;4.68;;;12.50;99.90;;;;;;5061278;28;20073;-77
2023/05/20 01:10:48;;;;;;;7.95;5.20;;;12.60;99.90;;;;;;4972819;28;20442;-77
2023/05/20 01:13:20;;;;;;;10.60;4.68;;;12.60;99.90;;;;;;4974423;28;20042;-78
2023/05/20 01:15:47;;;;;;;8.75;4.93;;;12.60;99.90;;;;;;4990003;28;20038;-78
2023/05/20 01:18:17;;;;;;;7.38;5.15;;;12.50;99.90;;;;;;4971181;28;20551;-77
2023/05/20 01:20:46;;;;;;;7.88;5.32;;;12.50;99.90;;;;;;4949064;28;20085;-77
2023/05/20 01:23:11;;;;;;;9.88;4.85;;;12.50;99.90;;;;;;5017613;28;20447;-76
2023/05/20 01:25:37;;;;;;;11.77;5.13;;;12.50;99.90;;;;;;5025503;28;20042;-78
2023/05/20 01:28:03;;;;;;;11.10;5.45;;;12.50;99.90;;;;;;5002499;28;20048;-78
2023/05/20 01:30:34;;;;;;;7.05;4.65;;;12.50;99.90;;;;;;5005964;28;20138;-81
2023/05/20 01:33:06;;;;;;;7.78;5.15;;;12.40;99.90;;;;;;5007798;28;20038;-77
2023/05/20 01:35:33;;;;;;;8.45;5.43;;;12.50;99.90;;;;;;4991346;28;20054;-77
2023/05/20 01:38:00;;;;;;;7.22;4.97;;;12.50;99.90;;;;;;4988771;28;20037;-75
2023/05/20 01:40:27;;;;;;;8.70;4.82;;;12.40;99.90;;;;;;4974130;28;20042;-78
2023/05/20 01:42:54;;;;;;;8.98;5.05;;;12.40;99.90;;;;;;4987609;28;20078;-78
2023/05/20 01:45:22;;;;;;;8.50;5.30;;;12.40;99.90;;;;;;4956226;28;20045;-76
2023/05/20 01:47:48;;;;;;;8.70;5.78;;;12.50;99.90;;;;;;4989621;28;20094;-78
2023/05/20 01:50:14;;;;;;;7.18;5.55;;;12.40;99.90;;;;;;4996901;28;20045;-78
2023/05/20 01:52:40;;;;;;;10.50;5.10;;;12.50;99.90;;;;;;5005834;28;20042;-76
2023/05/20 01:55:06;;;;;;;11.25;5.45;;;12.40;99.90;;;;;;5004965;28;20065;-78
2023/05/20 01:57:31;;;;;;;7.47;4.82;;;12.50;99.90;;;;;;4973044;28;20129;-80
2023/05/20 01:59:57;;;;;;;8.38;5.03;;;12.50;99.90;;;;;;4987264;28;20078;-77
2023/05/20 02:02:23;;;;;;;8.55;4.75;;;12.40;99.90;;;;;;4958463;28;20046;-77
2023/05/20 02:04:50;;;;;;;8.27;4.60;;;12.50;99.90;;;;;;4989966;28;20077;-77
2023/05/20 02:07:19;;;;;;;6.80;4.47;;;12.40;99.90;;;;;;4973437;28;20046;-76
2023/05/20 02:09:46;;;;;;;7.03;4.75;;;12.40;99.90;;;;;;4973486;28;20050;-78
2023/05/20 02:12:15;;;;;;;9.18;5.45;;;12.40;99.90;;;;;;5004329;28;20486;-80
2023/05/20 02:14:46;;;;;;;7.30;5.05;;;12.30;99.90;;;;;;4955202;28;20042;-79
2023/05/20 02:17:15;;;;;;;8.77;4.78;;;12.40;99.90;;;;;;5014070;28;20117;-81
2023/05/20 02:19:42;;;;;;;6.70;4.80;;;12.40;99.90;;;;;;4999412;28;20673;-78
2023/05/20 02:22:07;;;;;;;9.38;4.43;;;12.30;99.90;;;;;;4972502;28;20044;-81
2023/05/20 02:24:33;;;;;;;8.43;5.03;;;12.30;99.90;;;;;;5005157;28;20122;-81
2023/05/20 02:26:59;;;;;;;8.60;4.45;;;12.30;99.90;;;;;;5056277;28;20041;-78
2023/05/20 02:29:25;;;;;;;6.65;4.68;;;12.30;99.90;;;;;;4974431;28;20049;-76
2023/05/20 02:31:50;;;;;;;7.80;4.88;;;12.30;99.90;;;;;;4989354;28;20125;-77
2023/05/20 02:34:17;;;;;;;6.30;4.10;;;12.30;99.90;;;;;;5057652;28;20038;-81
2023/05/20 02:36:43;;;;;;;9.25;4.97;;;12.30;99.90;;;;;;4989846;28;20050;-78
2023/05/20 02:39:09;;;;;;;6.63;4.60;;;12.40;99.90;;;;;;4956710;28;20394;-77
2023/05/20 02:41:35;;;;;;;8.88;4.45;;;12.30;99.90;;;;;;5002660;28;20112;-77
2023/05/20 02:44:00;;;;;;;6.70;4.45;;;12.50;99.90;;;;;;4978822;28;20347;-79
2023/05/20 02:46:26;;;;;;;8.45;4.60;;;12.50;99.90;;;;;;4990311;28;20040;-75
2023/05/20 02:48:52;;;;;;;8.15;4.60;;;12.40;99.90;;;;;;4981722;28;20050;-77
2023/05/20 02:51:17;;;;;;;7.47;4.53;;;12.50;99.90;;;;;;4985882;28;20042;-78
2023/05/20 02:53:43;;;;;;;7.32;4.28;;;12.60;99.90;;;;;;4987437;28;20042;-75
2023/05/20 02:56:09;;;;;;;7.60;4.40;;;12.60;99.90;;;;;;4987863;28;20061;-78
2023/05/20 02:58:36;;;;;;;7.15;4.55;;;12.50;99.90;;;;;;5012313;28;20080;-77
2023/05/20 03:01:02;;;;;;;9.52;5.07;;;12.50;99.90;;;;;;4974262;28;20042;-80
2023/05/20 03:03:28;;;;;;;5.32;4.28;;;12.40;99.90;;;;;;4963447;28;20046;-79
2023/05/20 03:05:54;;;;;;;6.53;4.07;;;12.40;99.90;;;;;;4988480;28;20129;-79
2023/05/20 03:08:21;;;;;;;9.32;4.57;;;12.40;99.90;;;;;;4989391;28;20136;-78
2023/05/20 03:10:47;;;;;;;7.95;4.35;;;12.40;99.90;;;;;;5052507;28;20042;-79
2023/05/20 03:13:14;;;;;;;6.32;4.03;;;12.30;99.90;;;;;;5003825;28;20044;-78
2023/05/20 03:15:41;;;;;;;10.73;4.45;;;12.40;99.90;;;;;;4972542;28;20458;-78
2023/05/20 03:18:09;;;;;;;8.20;4.65;;;12.30;99.90;;;;;;4972542;28;20042;-77
2023/05/20 03:20:37;;;;;;;5.95;4.15;;;12.20;99.90;;;;;;4969395;28;20039;-77
2023/05/20 03:23:06;;;;;;;5.90;3.97;;;12.20;99.90;;;;;;4988498;28;20049;-75
2023/05/20 03:25:32;;;;;;;7.07;4.28;;;12.20;99.90;;;;;;4991789;28;20050;-78
2023/05/20 03:27:58;;;;;;;6.50;4.25;;;12.10;99.90;;;;;;4975784;28;20401;-76
2023/05/20 03:30:25;;;;;;;6.68;4.25;;;12.20;99.90;;;;;;4991777;28;20455;-81
2023/05/20 03:32:50;;;;;;;6.55;3.55;;;12.10;99.90;;;;;;4975662;28;20049;-79
2023/05/20 03:35:16;;;;;;;7.25;3.72;;;12.10;99.90;;;;;;4960946;28;20912;-76
2023/05/20 03:37:43;;;;;;;7.38;4.18;;;12.20;99.90;;;;;;4992647;28;20030;-78
2023/05/20 03:40:09;;;;;;;7.80;4.68;;;12.10;99.90;;;;;;4976178;28;20473;-80
2023/05/20 03:42:36;;;;;;;4.22;3.30;;;12.10;99.90;;;;;;4975827;28;20050;-74
2023/05/20 03:45:02;;;;;;;6.75;3.67;;;12.10;99.90;;;;;;4991760;28;20548;-76
2023/05/20 03:47:28;;;;;;;7.20;3.65;;;12.20;99.90;;;;;;5008681;28;20042;-74
2023/05/20 03:49:54;;;;;;;4.65;3.40;;;12.20;99.90;;;;;;4974695;28;21345;-77
2023/05/20 03:52:20;;;;;;;5.68;3.80;;;12.20;99.90;;;;;;4991429;28;20454;-77
2023/05/20 03:54:45;;;;;;;5.47;3.75;;;12.40;99.90;;;;;;5060192;28;20038;-78
2023/05/20 03:57:11;;;;;;;3.90;3.40;;;12.50;99.90;;;;;;4975831;28;20030;-75
2023/05/20 03:59:37;;;;;;;4.97;3.47;;;12.40;99.90;;;;;;4992398;28;20091;-80
2023/05/20 04:02:04;;;;;;;7.57;3.10;;;12.70;99.90;;;;;;5022101;28;20049;-79
2023/05/20 04:04:31;;;;;;;4.82;3.42;;;12.70;99.90;;;;;;5060671;28;20038;-77
2023/05/20 04:06:59;;;;;;;5.63;3.50;;;12.80;99.90;;;;;;4975670;28;20574;-76
2023/05/20 04:09:25;;;;;;;6.40;3.20;;;12.80;99.90;;;;;;4992147;28;20377;-79
2023/05/20 04:11:51;;;;;;;3.63;2.78;;;12.90;99.90;;;;;;5046905;28;20045;-79
2023/05/20 04:14:17;;;;;;;5.57;3.00;;;13.00;99.90;;;;;;4993604;28;20042;-79
2023/05/20 04:16:44;;;;;;;6.97;2.92;;;13.10;99.90;;;;;;4957550;28;20085;-76
2023/05/20 04:19:11;;;;;;;5.22;2.92;;;13.20;99.90;;;;;;4961370;28;20490;-76
2023/05/20 04:21:37;;;;;;;3.88;2.70;;;13.30;99.90;;;;;;4990500;28;20413;-78
2023/05/20 04:24:04;;;;;;;3.10;2.67;;;13.50;99.90;;;;;;4974752;28;20465;-79
2023/05/20 04:26:30;;;;;;;4.78;2.65;;;13.50;99.90;;;;;;4990939;28;20093;-75
2023/05/20 04:28:57;;;;;;;4.65;2.58;;;13.50;99.90;;;;;;4990464;28;20156;-80
2023/05/20 04:31:25;;;;;;;4.05;2.80;;;13.60;99.90;;;;;;4990390;28;20121;-76
2023/05/20 04:33:54;;;;;;;7.28;3.00;;;13.60;99.90;;;;;;4990502;28;20505;-79
2023/05/20 04:36:21;;;;;;;6.22;2.60;;;13.70;99.90;;;;;;4989205;28;20060;-80
2023/05/20 04:38:47;;;;;;;4.40;2.65;;;13.80;99.90;;;;;;4954995;28;20125;-79
2023/05/20 04:41:14;;;;;;;4.95;2.65;;;13.90;99.90;;;;;;4973279;28;20112;-74
2023/05/20 04:43:40;;;;;;;2.63;2.13;;;13.80;99.90;;;;;;5005750;28;20429;-78
2023/05/20 04:46:06;;;;;;;3.75;2.70;;;13.90;99.90;;;;;;4985741;28;20079;-80
2023/05/20 04:48:32;;;;;;;4.47;2.63;;;13.80;99.90;;;;;;4994518;28;20099;-77
2023/05/20 04:50:58;;;;;;;4.35;2.47;;;13.80;99.90;;;;;;5008482;28;20042;-76
2023/05/20 04:53:24;;;;;;;4.60;2.10;;;13.80;99.90;;;;;;4990225;28;20037;-74
2023/05/20 04:55:53;;;;;;;4.10;2.30;;;13.90;99.90;;;;;;4989818;28;20053;-75
2023/05/20 04:58:23;;;;;;;4.13;1.98;;;13.90;99.90;;;;;;4988813;28;20466;-75
2023/05/20 05:00:50;;;;;;;2.88;2.30;;;13.90;99.90;;;;;;4940359;28;20125;-74
2023/05/20 05:03:16;;;;;;;3.50;2.30;;;13.90;99.90;;;;;;5005494;28;20379;-75
2023/05/20 05:05:48;;;;;;;3.65;2.40;;;13.80;99.90;;;;;;4954383;28;20084;-76
2023/05/20 05:08:14;;;;;;;4.63;2.53;;;14.00;99.90;;;;;;4984157;28;20074;-78
2023/05/20 05:10:40;;;;;;;3.40;2.00;;;14.10;99.90;;;;;;5006199;28;20406;-76
2023/05/20 05:13:05;;;;;;;3.10;2.00;;;14.10;99.90;;;;;;5005157;28;20441;-76
2023/05/20 05:15:31;;;;;;;2.65;1.90;;;14.10;99.90;;;;;;4961814;28;20401;-79
2023/05/20 05:17:57;;;;;;;2.78;1.70;;;14.20;99.90;;;;;;4996617;28;20367;-77
2023/05/20 05:20:23;;;;;;;3.83;1.95;;;14.40;99.90;;;;;;4996229;28;20125;-78
2023/05/20 05:22:49;;;;;;;2.20;1.77;;;14.30;99.90;;;;;;4989717;28;20468;-77
2023/05/20 05:25:15;;;;;;;4.10;1.92;;;14.50;99.90;;;;;;4958192;28;20126;-76
2023/05/20 05:27:43;;;;;;;4.65;1.88;;;14.70;99.90;;;;;;4960288;28;20060;-80
2023/05/20 05:30:09;;;;;;;3.78;2.00;;;14.80;99.90;;;;;;4989788;28;20057;-78
2023/05/20 05:32:36;;;;;;;4.22;1.77;;;15.00;99.90;;;;;;4989436;28;20042;-78
2023/05/20 05:35:02;;;;;;;3.28;1.98;;;15.10;99.90;;;;;;5008218;28;20044;-76
2023/05/20 05:37:28;;;;;;;3.35;1.70;;;15.20;99.90;;;;;;5007198;28;20041;-77
2023/05/20 05:39:53;;;;;;;2.83;1.70;;;15.10;99.90;;;;;;4973302;28;20528;-78
2023/05/20 05:42:19;;;;;;;2.05;1.63;;;15.20;99.90;;;;;;4972046;28;20069;-77
2023/05/20 05:44:45;;;;;;;2.53;1.88;;;15.20;99.90;;;;;;4958438;28;20082;-78
2023/05/20 05:47:10;;;;;;;3.80;1.65;;;15.20;99.90;;;;;;4957938;28;20038;-77
2023/05/20 05:49:36;;;;;;;2.63;1.50;;;15.20;99.90;;;;;;4957085;28;20743;-81
2023/05/20 05:52:02;;;;;;;2.72;1.60;;;15.30;99.90;;;;;;4941723;28;20046;-78
2023/05/20 05:54:28;;;;;;;1.88;1.33;;;15.30;99.90;;;;;;4990322;28;20037;-79
2023/05/20 05:56:57;;;;;;;2.90;1.85;;;15.30;99.90;;;;;;4990207;28;20050;-80
2023/05/20 05:59:23;;;;;;;2.28;1.50;;;15.40;99.90;;;;;;5005267;28;20076;-82
2023/05/20 06:01:49;;;;;;;3.45;1.88;;;15.50;99.90;;;;;;4995962;28;20050;-79
2023/05/20 06:04:15;;;;;;;2.42;1.55;;;15.50;99.90;;;;;;4973274;28;20046;-78
2023/05/20 06:06:40;;;;;;;2.55;1.65;;;15.40;99.90;;;;;;4971982;28;20039;-81
2023/05/20 06:09:06;;;;;;;3.42;2.10;;;15.40;99.90;;;;;;4988669;28;20103;-79
2023/05/20 06:11:32;;;;;;;3.22;1.60;;;15.40;99.90;;;;;;4972321;28;20389;-78
2023/05/20 06:13:58;;;;;;;2.55;2.00;;;15.40;99.90;;;;;;4987272;28;20763;-82
2023/05/20 06:16:24;;;;;;;2.80;1.90;;;15.50;99.90;;;;;;4981505;28;20034;-77
2023/05/20 06:18:51;;;;;;;4.88;1.67;;;15.50;99.90;;;;;;5007253;28;20367;-80
2023/05/20 06:21:17;;;;;;;2.53;1.35;;;15.60;99.90;;;;;;5002013;28;20030;-77
2023/05/20 06:23:43;;;;;;;2.50;1.40;;;15.60;99.90;;;;;;4987363;28;20099;-80
2023/05/20 06:26:09;;;;;;;2.80;1.70;;;15.60;99.90;;;;;;4988264;28;20538;-78
2023/05/20 06:28:35;;;;;;;2.88;1.60;;;15.70;99.90;;;;;;5057351;28;20045;-78
2023/05/20 06:31:00;;;;;;;3.00;1.73;;;15.60;99.90;;;;;;4987650;28;20073;-79
2023/05/20 06:33:29;;;;;;;2.22;1.40;;;15.80;99.90;;;;;;4972840;28;20103;-82
2023/05/20 06:36:01;;;;;;;3.10;1.77;;;16.50;99.90;;;;;;4955131;28;20087;-82
2023/05/20 06:38:27;;;;;;;2.42;1.30;;;16.00;99.90;;;;;;4990095;28;20045;-80
2023/05/20 06:40:55;;;;;;;2.95;2.10;;;16.00;99.90;;;;;;4979303;28;20042;-80
2023/05/20 06:43:25;;;;;;;1.90;1.60;;;16.10;99.90;;;;;;4983030;28;20121;-83
2023/05/20 06:46:03;;;;;;;2.03;1.45;;;16.20;99.90;;;;;;4971685;28;20034;-81
2023/05/20 06:48:29;;;;;;;2.20;1.40;;;16.40;99.90;;;;;;4990277;28;20054;-78
2023/05/20 06:50:55;;;;;;;3.67;1.67;;;16.30;99.90;;;;;;4954377;28;20125;-79
2023/05/20 06:53:21;;;;;;;2.78;1.50;;;16.40;99.90;;;;;;4986636;28;20042;-76
2023/05/20 06:55:47;;;;;;;4.68;1.60;;;16.60;99.90;;;;;;4966366;28;20044;-76
2023/05/20 06:58:13;;;;;;;2.30;1.73;;;16.70;99.90;;;;;;4987643;28;20034;-76
2023/05/20 07:00:39;;;;;;;2.80;1.80;;;16.60;99.90;;;;;;4987535;28;20115;-75
2023/05/20 07:03:04;;;;;;;2.90;1.60;;;16.60;99.90;;;;;;4956931;28;20053;-79
2023/05/20 07:05:33;;;;;;;3.20;1.80;;;16.70;99.90;;;;;;4985814;28;20111;-81
2023/05/20 07:07:59;;;;;;;2.05;1.35;;;16.80;99.90;;;;;;4991106;28;20045;-81
2023/05/20 07:10:24;;;;;;;1.92;1.50;;;16.90;99.90;;;;;;4989351;28;20133;-76
2023/05/20 07:12:50;;;;;;;1.73;1.42;;;17.00;99.90;;;;;;4987354;28;20045;-77
2023/05/20 07:15:16;;;;;;;2.72;1.67;;;16.90;99.90;;;;;;4972220;28;20045;-79
2023/05/20 07:17:42;;;;;;;5.97;1.63;;;17.20;99.90;;;;;;4984876;28;20394;-76
2023/05/20 07:20:08;;;;;;;4.47;1.70;;;17.00;99.90;;;;;;4972615;28;20049;-78
2023/05/20 07:22:34;;;;;;;3.72;1.50;;;17.20;99.90;;;;;;4973556;28;20049;-79
2023/05/20 07:25:00;;;;;;;1.92;1.45;;;17.40;99.90;;;;;;5056899;28;20038;-78
2023/05/20 07:27:25;;;;;;;2.88;1.60;;;17.50;99.90;;;;;;4972583;28;20125;-77
2023/05/20 07:29:51;;;;;;;2.88;1.30;;;17.60;99.90;;;;;;4989000;28;20129;-76
2023/05/20 07:32:17;;;;;;;2.55;1.40;;;17.30;99.90;;;;;;4952578;28;20405;-78
2023/05/20 07:34:42;;;;;;;2.17;1.40;;;17.50;99.90;;;;;;4953441;28;20038;-79
2023/05/20 07:37:08;;;;;;;3.17;1.52;;;17.60;99.90;;;;;;4963726;28;20037;-77
2023/05/20 07:39:34;;;;;;;2.42;1.60;;;17.70;99.90;;;;;;4972501;28;20045;-80
2023/05/20 07:42:00;;;;;;;1.88;1.45;;;17.50;99.90;;;;;;5022211;28;20046;-77
2023/05/20 07:44:26;;;;;;;3.33;1.60;;;17.80;99.90;;;;;;4987680;28;20050;-80
2023/05/20 07:46:52;;;;;;;2.35;1.40;;;17.60;99.90;;;;;;4956187;28;20676;-77
2023/05/20 07:49:18;;;;;;;3.03;1.60;;;17.60;99.90;;;;;;4971547;28;20049;-76
2023/05/20 07:51:45;;;;;;;3.83;1.55;;;17.80;99.90;;;;;;4988240;28;20056;-78
2023/05/20 07:54:11;;;;;;;1.80;1.50;;;18.00;99.90;;;;;;4987426;28;20049;-78
2023/05/20 07:56:36;;;;;;;2.40;1.98;;;17.80;99.90;;;;;;4986302;28;21491;-77
2023/05/20 07:59:02;;;;;;;3.38;1.65;;;18.00;99.90;;;;;;4970903;28;20423;-79
2023/05/20 08:01:28;;;;;;;2.83;1.42;;;17.90;99.90;;;;;;4985885;28;20527;-79
2023/05/20 08:03:55;;;;;;;2.90;1.58;;;17.90;99.90;;;;;;4957791;28;20092;-78
2023/05/20 08:06:20;;;;;;;2.05;1.70;;;18.00;99.90;;;;;;4965795;28;20390;-78
2023/05/20 08:08:46;;;;;;;2.78;1.63;;;18.10;99.90;;;;;;4973449;28;20057;-78
2023/05/20 08:11:12;;;;;;;2.25;1.50;;;18.20;99.90;;;;;;4982056;28;20065;-77
2023/05/20 08:13:38;;;;;;;2.28;1.55;;;18.40;99.90;;;;;;4970415;28;20058;-78
2023/05/20 08:16:05;;;;;;;4.00;1.70;;;18.40;99.90;;;;;;4972718;28;20446;-77
2023/05/20 08:18:32;;;;;;;2.75;1.77;;;18.40;99.90;;;;;;4988339;28;20392;-80
2023/05/20 08:20:58;;;;;;;2.35;1.70;;;18.40;99.90;;;;;;4988589;28;20051;-77
2023/05/20 08:23:24;;;;;;;2.20;1.50;;;18.60;99.90;;;;;;4987198;28;20053;-77
2023/05/20 08:25:50;;;;;;;3.00;1.55;;;18.90;99.90;;;;;;4987765;28;20042;-77
2023/05/20 08:28:16;;;;;;;1.98;1.35;;;18.90;99.90;;;;;;4971516;28;20605;-81
2023/05/20 08:30:42;;;;;;;3.40;1.70;;;18.70;99.90;;;;;;4987592;28;20049;-78
2023/05/20 08:33:08;;;;;;;3.55;1.63;;;19.00;99.90;;;;;;4939574;28;20099;-80
2023/05/20 08:35:34;;;;;;;3.65;1.60;;;18.80;99.90;;;;;;4986977;28;20406;-78
2023/05/20 08:38:00;;;;;;;2.67;1.63;;;18.80;99.90;;;;;;4978558;28;20092;-75
2023/05/20 08:40:26;;;;;;;4.10;1.70;;;19.00;99.90;;;;;;4985360;28;20057;-76
2023/05/20 08:42:52;;;;;;;4.50;1.80;;;19.10;99.90;;;;;;4958684;28;20039;-74
2023/05/20 08:45:20;;;;;;;2.40;2.10;;;19.10;99.90;;;;;;4973847;28;20060;-77
2023/05/20 08:47:46;;;;;;;3.20;1.88;;;19.20;99.90;;;;;;4987957;28;20138;-75
2023/05/20 08:50:13;;;;;;;2.45;1.45;;;19.30;99.90;;;;;;4970944;28;20074;-75
2023/05/20 08:52:43;;;;;;;2.92;1.50;;;19.50;99.90;;;;;;4971606;28;20052;-77
2023/05/20 08:55:16;;;;;;;3.95;1.90;;;19.80;99.90;;;;;;4970569;28;20043;-75
2023/05/20 08:57:46;;;;;;;2.40;1.55;;;19.60;99.90;;;;;;4987859;28;20044;-79
2023/05/20 09:00:15;;;;;;;3.88;2.03;;;19.70;99.90;;;;;;4970844;28;20113;-78
2023/05/20 09:02:40;;;;;;;2.72;1.70;;;19.90;99.90;;;;;;4939869;28;20049;-79
2023/05/20 09:05:09;;;;;;;3.88;1.75;;;20.10;99.90;;;;;;4987347;28;20597;-78
2023/05/20 09:07:35;;;;;;;6.70;2.47;;;20.20;99.90;;;;;;4985185;28;20038;-74
2023/05/20 09:10:01;;;;;;;4.07;1.85;;;20.30;99.90;;;;;;5056623;28;20034;-81
2023/05/20 09:12:27;;;;;;;2.17;1.80;;;20.30;99.90;;;;;;4953391;28;20749;-82
2023/05/20 09:14:53;;;;;;;2.15;1.42;;;20.50;99.90;;;;;;4968708;28;20042;-82
2023/05/20 09:17:21;;;;;;;3.55;2.08;;;20.80;99.90;;;;;;4985215;28;20039;-83
2023/05/20 09:19:49;;;;;;;2.47;1.80;;;20.30;99.90;;;;;;4957175;28;20042;-81
2023/05/20 09:22:21;;;;;;;4.65;1.80;;;20.70;99.90;;;;;;4971736;28;20050;-81
2023/05/20 09:24:47;;;;;;;2.75;1.58;;;20.60;99.90;;;;;;4971606;28;20129;-81
2023/05/20 09:27:13;;;;;;;7.75;1.77;;;21.40;99.90;;;;;;4951185;28;20141;-80
2023/05/20 09:29:39;;;;;;;2.78;2.08;;;21.20;99.90;;;;;;4973923;28;20046;-83
2023/05/20 09:32:05;;;;;;;2.05;1.50;;;21.10;96.00;;;;;;4985127;28;20545;-81
2023/05/20 09:34:31;;;;;;;3.28;1.90;;;21.30;99.90;;;;;;4967502;28;20039;-81
2023/05/20 09:36:59;;;;;;;2.70;1.90;;;21.10;71.40;;;;;;4983919;28;20441;-75
2023/05/20 09:39:30;;;;;;;3.30;2.03;;;21.50;78.20;;;;;;4967201;28;20095;-79
2023/05/20 09:42:01;;;;;;;2.35;1.70;;;22.00;55.10;;;;;;4983678;28;20051;-75
2023/05/20 09:44:28;;;;;;;2.65;1.90;;;21.80;39.00;;;;;;4986597;28;20121;-77
2023/05/20 09:46:55;;;;;;;2.72;2.00;;;22.00;36.90;;;;;;4987312;28;20047;-76
2023/05/20 09:49:22;;;;;;;2.10;1.80;;;22.00;20.70;;;;;;4987137;28;20110;-80
2023/05/20 09:51:49;;;;;;;2.83;1.67;;;21.90;28.40;;;;;;4985228;28;20053;-80
2023/05/20 09:54:18;;;;;;;2.75;1.80;;;21.60;20.50;;;;;;4954455;28;20121;-79
2023/05/20 09:56:45;;;;;;;2.47;2.10;;;21.70;23.60;;;;;;4987162;28;20034;-82
2023/05/20 09:59:12;;;;;;;3.28;2.03;;;21.70;18.90;;;;;;4971589;28;20065;-80
2023/05/20 10:01:37;;;;;;;3.03;1.90;;;21.90;15.40;;;;;;4983323;28;20562;-79
2023/05/20 10:04:05;;;;;;;2.58;1.70;;;22.00;16.00;;;;;;4965197;28;20042;-79
2023/05/20 10:06:34;;;;;;;2.30;1.63;;;22.20;18.60;;;;;;4989894;28;20049;-79
2023/05/20 10:09:08;;;;;;;4.50;1.80;;;22.40;9.00;;;;;;4974313;28;20038;-78
2023/05/20 10:12:00;;;;;;;2.85;1.75;;;22.30;1.00;;;;;;4988074;28;21588;-73
2023/05/20 10:14:45;;;;;;;2.17;1.70;;;22.20;1.00;;;;;;4973595;28;20049;-78
2023/05/20 10:17:48;;;;;;;4.97;1.95;;;21.60;1.00;;;;;;4973852;28;20042;-78
2023/05/20 10:20:14;;;;;;;4.25;1.80;;;22.20;1.00;;;;;;4989525;28;20638;-77
2023/05/20 10:22:40;;;;;;;3.40;1.70;;;22.20;1.00;;;;;;4971389;28;20044;-77
2023/05/20 10:25:24;;;;;;;3.38;2.03;;;22.40;1.00;;;;;;4987424;28;20050;-81
2023/05/20 10:27:49;;;;;;;2.53;1.70;;;22.60;1.00;;;;;;4988314;28;20038;-79
2023/05/20 10:30:20;;;;;;;2.92;2.10;;;22.60;1.00;;;;;;5005358;28;20044;-77
2023/05/20 10:33:01;;;;;;;3.30;2.20;;;22.80;1.00;;;;;;4988513;28;20038;-80
2023/05/20 10:35:27;;;;;;;2.90;1.60;;;22.50;1.00;;;;;;4987935;28;20045;-77
2023/05/20 10:38:10;;;;;;;3.05;1.80;;;22.30;1.00;;;;;;4989143;28;20421;-79
2023/05/20 10:40:36;;;;;;;3.53;2.00;;;22.80;1.00;;;;;;4988786;28;20378;-77
2023/05/20 10:43:10;;;;;;;3.50;1.73;;;22.30;1.00;;;;;;4970335;28;20042;-76
2023/05/20 10:45:50;;;;;;;5.53;1.95;;;22.40;1.00;;;;;;4989260;28;20136;-78
2023/05/20 10:48:20;;;;;;;3.15;2.10;;;22.40;1.00;;;;;;4989101;28;20133;-78
2023/05/20 10:50:46;;;;;;;4.40;2.30;;;22.40;1.00;;;;;;5004425;28;20057;-78
2023/05/20 10:53:13;;;;;;;3.72;2.33;;;22.50;1.00;;;;;;4985430;28;20046;-78
2023/05/20 10:55:48;;;;;;;2.85;1.80;;;22.40;1.00;;;;;;4972645;28;20044;-79
2023/05/20 10:58:14;;;;;;;4.97;2.00;;;22.60;1.00;;;;;;4953011;28;20486;-77
2023/05/20 11:00:42;;;;;;;3.55;1.90;;;23.00;1.00;;;;;;4969272;28;20212;-78
2023/05/20 11:03:14;;;;;;;2.63;1.88;;;22.50;1.00;;;;;;4971021;28;20126;-78
2023/05/20 11:05:40;;;;;;;2.30;1.77;;;22.80;1.00;;;;;;5021463;28;20041;-78
2023/05/20 11:08:07;;;;;;;2.40;1.77;;;23.00;1.00;;;;;;5057127;28;20048;-79
2023/05/20 11:10:34;;;;;;;2.42;1.80;;;23.40;1.00;;;;;;4987855;28;20069;-79
2023/05/20 11:13:01;;;;;;;3.83;1.70;;;23.50;1.00;;;;;;5005174;28;20084;-80
2023/05/20 11:15:29;;;;;;;3.10;2.00;;;23.60;1.00;;;;;;4987391;28;20044;-78
2023/05/20 11:17:56;;;;;;;4.30;2.22;;;23.40;1.00;;;;;;4972454;28;20068;-77
2023/05/20 11:20:23;;;;;;;4.30;1.95;;;22.20;1.00;;;;;;4971717;28;20046;-76
2023/05/20 11:22:53;;;;;;;3.75;2.22;;;21.60;1.00;;;;;;4957350;28;20806;-80
2023/05/20 11:25:22;;;;;;;3.55;2.13;;;22.20;1.00;;;;;;4988381;28;20098;-79
2023/05/20 11:27:49;;;;;;;3.55;2.08;;;22.70;1.00;;;;;;4973667;28;20135;-77
2023/05/20 11:30:19;;;;;;;6.13;2.40;;;23.10;1.00;;;;;;4972841;28;20046;-77
2023/05/20 11:33:00;;;;;;;2.65;2.08;;;22.70;1.00;;;;;;4972504;28;20557;-76
2023/05/20 11:35:29;;;;;;;3.55;2.42;;;22.70;1.00;;;;;;4986839;28;20084;-76
2023/05/20 11:38:06;;;;;;;4.05;2.42;;;22.10;1.00;;;;;;4988417;28;20057;-76
2023/05/20 11:40:32;;;;;;;5.43;2.40;;;21.70;2.30;;;;;;4971917;28;20409;-77
2023/05/20 11:43:02;;;;;;;4.82;2.88;;;21.30;1.00;;;;;;4972440;28;20559;-79
2023/05/20 11:45:42;;;;;;;4.30;2.45;;;21.90;8.90;;;;;;5003331;28;20090;-78
2023/05/20 11:48:08;;;;;;;6.80;3.10;;;21.30;22.10;;;;;;5008795;28;20047;-78
2023/05/20 11:50:39;;;;;;;4.60;3.40;;;21.50;25.20;;;;;;5007444;28;20546;-78
2023/05/20 11:53:10;;;;;;;3.50;2.92;;;21.30;31.80;;;;;;5024539;28;20073;-77
2023/05/20 11:55:53;;;;;;;4.78;2.85;;;21.10;36.60;;;;;;5020622;28;20110;-77
2023/05/20 11:58:20;;;;;;;3.67;2.47;;;20.90;76.30;;;;;;4975022;28;20654;-78
2023/05/20 12:00:46;;;;;;;4.35;2.60;;;21.10;79.60;;;;;;4990171;28;20142;-77
2023/05/20 12:03:12;;;;;;;5.35;2.72;;;21.90;63.40;;;;;;4990105;28;20474;-78
2023/05/20 12:05:39;;;;;;;4.88;2.95;;;22.50;54.00;;;;;;4968747;28;20049;-78
2023/05/20 12:08:05;;;;;;;4.20;3.15;;;22.20;32.10;;;;;;5003492;28;20103;-77
2023/05/20 12:10:31;;;;;;;5.68;2.85;;;22.40;18.50;;;;;;4970318;28;20043;-79
2023/05/20 12:12:58;;;;;;;5.00;2.72;;;22.00;14.80;;;;;;4955080;28;20475;-77
2023/05/20 12:15:24;;;;;;;4.97;2.67;;;22.20;9.10;;;;;;4970993;28;20563;-78
2023/05/20 12:17:51;;;;;;;6.18;3.03;;;22.60;19.20;;;;;;4956096;28;20041;-77
2023/05/20 12:20:21;;;;;;;6.47;3.00;;;22.10;26.60;;;;;;4974236;28;20038;-79
2023/05/20 12:22:47;;;;;;;5.60;2.75;;;21.40;37.00;;;;;;5017258;28;20199;-77
2023/05/20 12:25:14;;;;;;;7.22;3.38;;;21.60;38.90;;;;;;5059569;28;20477;-80
2023/05/20 12:27:41;;;;;;;11.55;3.60;;;21.40;49.50;;;;;;5008066;28;20049;-79
2023/05/20 12:30:08;;;;;;;6.45;3.67;;;21.30;48.30;;;;;;4990133;28;20597;-78
2023/05/20 12:32:37;;;;;;;5.00;2.80;;;21.40;61.10;;;;;;4989643;28;20050;-78
2023/05/20 12:35:03;;;;;;;4.45;3.08;;;21.20;52.00;;;;;;4990223;28;20046;-76
2023/05/20 12:37:30;;;;;;;5.53;3.00;;;21.20;58.50;;;;;;4972096;28;20042;-76
2023/05/20 12:39:58;;;;;;;4.75;3.15;;;21.50;53.90;;;;;;4985873;28;20042;-79
2023/05/20 12:42:24;;;;;;;6.75;3.47;;;21.70;48.90;;;;;;4970704;28;20058;-78
2023/05/20 12:44:50;;;;;;;5.18;3.25;;;21.50;55.50;;;;;;5003082;28;20042;-79
2023/05/20 12:47:16;;;;;;;7.10;3.50;;;21.20;77.60;;;;;;4986307;28;20042;-76
2023/05/20 12:49:41;;;;;;;5.78;3.17;;;21.10;83.40;;;;;;4972127;28;20061;-79